sensor_id;sensor_type;location;lat;lon;timestamp;pressure;altitude;pressure_sealevel;temperature;humidity
77124;BME280;66079;47.646;19.130;2023-05-02T00:01:54;100487.41;;;11.88;57.54
77124;BME280;66079;47.646;19.130;2023-05-02T00:04:57;100493.16;;;11.97;57.64
77124;BME280;66079;47.646;19.130;2023-05-02T00:08:00;100486.19;;;11.91;57.44
77124;BME280;66079;47.646;19.130;2023-05-02T00:11:02;100497.34;;;12.04;57.73
77124;BME280;66079;47.646;19.130;2023-05-02T00:14:05;100502.53;;;12.11;56.97
77124;BME280;66079;47.646;19.130;2023-05-02T00:17:07;100494.13;;;12.09;56.86
77124;BME280;66079;47.646;19.130;2023-05-02T00:20:10;100486.09;;;12.11;56.90
77124;BME280;66079;47.646;19.130;2023-05-02T00:23:13;100492.94;;;12.05;57.56
77124;BME280;66079;47.646;19.130;2023-05-02T00:26:16;100495.31;;;12.13;57.50
77124;BME280;66079;47.646;19.130;2023-05-02T00:29:18;100498.16;;;12.05;58.21
77124;BME280;66079;47.646;19.130;2023-05-02T00:32:21;100480.91;;;12.04;58.38
77124;BME280;66079;47.646;19.130;2023-05-02T00:35:23;100497.31;;;12.11;58.30
77124;BME280;66079;47.646;19.130;2023-05-02T00:38:26;100497.91;;;12.13;58.74
77124;BME280;66079;47.646;19.130;2023-05-02T00:41:29;100493.69;;;12.12;58.85
77124;BME280;66079;47.646;19.130;2023-05-02T00:44:31;100503.69;;;12.22;58.32
77124;BME280;66079;47.646;19.130;2023-05-02T00:47:34;100498.09;;;12.18;58.76
77124;BME280;66079;47.646;19.130;2023-05-02T00:50:39;100494.63;;;12.24;58.98
77124;BME280;66079;47.646;19.130;2023-05-02T00:53:42;100504.47;;;12.22;58.11
77124;BME280;66079;47.646;19.130;2023-05-02T00:56:44;100499.25;;;12.22;58.22
77124;BME280;66079;47.646;19.130;2023-05-02T00:59:48;100497.66;;;12.21;57.09
77124;BME280;66079;47.646;19.130;2023-05-02T01:03:00;100507.03;;;12.29;56.71
77124;BME280;66079;47.646;19.130;2023-05-02T01:09:45;100477.78;;;12.27;56.17
77124;BME280;66079;47.646;19.130;2023-05-02T01:13:03;100497.34;;;12.42;55.30
77124;BME280;66079;47.646;19.130;2023-05-02T01:16:10;100501.16;;;12.46;55.26
77124;BME280;66079;47.646;19.130;2023-05-02T01:19:41;100504.75;;;12.45;55.30
77124;BME280;66079;47.646;19.130;2023-05-02T01:22:46;100473.59;;;12.26;54.59
77124;BME280;66079;47.646;19.130;2023-05-02T01:26:23;100493.94;;;12.42;54.86
77124;BME280;66079;47.646;19.130;2023-05-02T01:29:29;100478.75;;;12.32;54.72
77124;BME280;66079;47.646;19.130;2023-05-02T01:32:33;100495.59;;;12.36;54.78
77124;BME280;66079;47.646;19.130;2023-05-02T01:35:38;100482.59;;;12.30;55.29
77124;BME280;66079;47.646;19.130;2023-05-02T01:38:43;100480.38;;;12.27;55.89
77124;BME280;66079;47.646;19.130;2023-05-02T01:41:52;100488.41;;;12.25;56.46
77124;BME280;66079;47.646;19.130;2023-05-02T01:44:57;100487.84;;;12.23;56.90
77124;BME280;66079;47.646;19.130;2023-05-02T01:48:01;100477.66;;;12.08;57.61
77124;BME280;66079;47.646;19.130;2023-05-02T01:51:05;100475.72;;;11.97;57.85
77124;BME280;66079;47.646;19.130;2023-05-02T01:54:11;100492.78;;;11.93;58.56
77124;BME280;66079;47.646;19.130;2023-05-02T01:57:16;100478.38;;;11.84;58.49
77124;BME280;66079;47.646;19.130;2023-05-02T02:00:20;100492.25;;;11.78;58.86
77124;BME280;66079;47.646;19.130;2023-05-02T02:03:25;100470.22;;;11.61;59.09
77124;BME280;66079;47.646;19.130;2023-05-02T02:06:29;100499.09;;;11.66;59.78
77124;BME280;66079;47.646;19.130;2023-05-02T02:09:34;100462.25;;;11.50;59.95
77124;BME280;66079;47.646;19.130;2023-05-02T02:13:05;100494.28;;;11.57;60.42
77124;BME280;66079;47.646;19.130;2023-05-02T02:16:11;100485.06;;;11.54;60.29
77124;BME280;66079;47.646;19.130;2023-05-02T02:19:16;100481.25;;;11.57;60.17
77124;BME280;66079;47.646;19.130;2023-05-02T02:22:20;100471.88;;;11.56;59.06
77124;BME280;66079;47.646;19.130;2023-05-02T02:25:24;100460.25;;;11.52;58.31
77124;BME280;66079;47.646;19.130;2023-05-02T02:28:28;100460.06;;;11.47;57.67
77124;BME280;66079;47.646;19.130;2023-05-02T02:31:32;100463.50;;;11.41;57.70
77124;BME280;66079;47.646;19.130;2023-05-02T02:34:34;100474.06;;;11.52;57.70
77124;BME280;66079;47.646;19.130;2023-05-02T02:41:14;100448.31;;;11.25;58.04
77124;BME280;66079;47.646;19.130;2023-05-02T02:44:30;100471.09;;;11.36;57.89
77124;BME280;66079;47.646;19.130;2023-05-02T02:47:43;100474.34;;;11.31;58.39
77124;BME280;66079;47.646;19.130;2023-05-02T02:51:01;100470.53;;;11.21;58.21
77124;BME280;66079;47.646;19.130;2023-05-02T03:00:40;100467.53;;;11.11;58.68
77124;BME280;66079;47.646;19.130;2023-05-02T03:03:43;100457.97;;;10.98;59.14
77124;BME280;66079;47.646;19.130;2023-05-02T03:06:47;100476.94;;;10.99;59.60
77124;BME280;66079;47.646;19.130;2023-05-02T03:09:51;100483.97;;;10.98;59.44
77124;BME280;66079;47.646;19.130;2023-05-02T03:12:57;100468.56;;;10.84;59.78
77124;BME280;66079;47.646;19.130;2023-05-02T03:16:17;100490.75;;;10.93;59.85
77124;BME280;66079;47.646;19.130;2023-05-02T03:19:26;100469.97;;;10.80;59.36
77124;BME280;66079;47.646;19.130;2023-05-02T03:22:29;100486.38;;;10.87;59.33
77124;BME280;66079;47.646;19.130;2023-05-02T03:25:31;100468.16;;;10.80;58.88
77124;BME280;66079;47.646;19.130;2023-05-02T03:28:34;100459.56;;;10.66;59.31
77124;BME280;66079;47.646;19.130;2023-05-02T03:31:38;100488.38;;;10.85;58.98
77124;BME280;66079;47.646;19.130;2023-05-02T03:34:41;100489.53;;;10.75;59.51
77124;BME280;66079;47.646;19.130;2023-05-02T03:37:44;100489.38;;;10.70;59.81
77124;BME280;66079;47.646;19.130;2023-05-02T03:40:48;100495.34;;;10.71;60.00
77124;BME280;66079;47.646;19.130;2023-05-02T03:43:50;100482.13;;;10.53;60.39
77124;BME280;66079;47.646;19.130;2023-05-02T03:46:56;100490.53;;;10.48;60.64
77124;BME280;66079;47.646;19.130;2023-05-02T03:49:59;100485.13;;;10.50;60.68
77124;BME280;66079;47.646;19.130;2023-05-02T03:53:03;100500.94;;;10.55;61.03
77124;BME280;66079;47.646;19.130;2023-05-02T03:56:18;100514.31;;;10.52;61.23
77124;BME280;66079;47.646;19.130;2023-05-02T03:59:37;100498.13;;;10.43;61.64
77124;BME280;66079;47.646;19.130;2023-05-02T04:02:52;100497.50;;;10.41;61.67
77124;BME280;66079;47.646;19.130;2023-05-02T04:05:58;100519.72;;;10.50;62.01
77124;BME280;66079;47.646;19.130;2023-05-02T04:09:01;100512.31;;;10.47;62.38
77124;BME280;66079;47.646;19.130;2023-05-02T04:12:10;100520.91;;;10.54;62.55
77124;BME280;66079;47.646;19.130;2023-05-02T04:15:17;100522.34;;;10.57;62.53
77124;BME280;66079;47.646;19.130;2023-05-02T04:18:27;100510.72;;;10.46;62.77
77124;BME280;66079;47.646;19.130;2023-05-02T04:21:30;100517.53;;;10.54;62.55
77124;BME280;66079;47.646;19.130;2023-05-02T04:24:33;100504.53;;;10.47;62.68
77124;BME280;66079;47.646;19.130;2023-05-02T04:27:36;100520.94;;;10.61;62.60
77124;BME280;66079;47.646;19.130;2023-05-02T04:30:43;100514.53;;;10.57;62.55
77124;BME280;66079;47.646;19.130;2023-05-02T04:33:47;100515.38;;;10.70;62.23
77124;BME280;66079;47.646;19.130;2023-05-02T04:36:53;100529.97;;;10.91;62.41
77124;BME280;66079;47.646;19.130;2023-05-02T04:39:58;100527.38;;;10.98;62.63
77124;BME280;66079;47.646;19.130;2023-05-02T04:43:04;100536.00;;;11.11;62.46
77124;BME280;66079;47.646;19.130;2023-05-02T04:46:16;100520.38;;;11.18;61.80
77124;BME280;66079;47.646;19.130;2023-05-02T04:49:20;100542.97;;;11.37;61.50
77124;BME280;66079;47.646;19.130;2023-05-02T04:52:23;100525.16;;;11.34;61.47
77124;BME280;66079;47.646;19.130;2023-05-02T04:55:26;100524.94;;;11.42;60.89
77124;BME280;66079;47.646;19.130;2023-05-02T04:58:28;100527.53;;;11.55;60.24
77124;BME280;66079;47.646;19.130;2023-05-02T05:01:35;100552.34;;;11.77;60.12
77124;BME280;66079;47.646;19.130;2023-05-02T05:04:38;100532.91;;;11.73;60.40
77124;BME280;66079;47.646;19.130;2023-05-02T05:07:41;100546.28;;;11.89;60.39
77124;BME280;66079;47.646;19.130;2023-05-02T05:10:46;100531.28;;;11.91;60.11
77124;BME280;66079;47.646;19.130;2023-05-02T05:13:49;100510.44;;;11.85;60.58
77124;BME280;66079;47.646;19.130;2023-05-02T05:16:52;100535.19;;;12.07;60.06
77124;BME280;66079;47.646;19.130;2023-05-02T05:19:56;100531.34;;;12.23;59.36
77124;BME280;66079;47.646;19.130;2023-05-02T05:22:59;100545.69;;;12.38;59.48
77124;BME280;66079;47.646;19.130;2023-05-02T05:26:13;100534.88;;;12.41;59.09
77124;BME280;66079;47.646;19.130;2023-05-02T05:29:19;100551.16;;;12.61;58.75
77124;BME280;66079;47.646;19.130;2023-05-02T05:32:22;100566.31;;;12.84;57.49
77124;BME280;66079;47.646;19.130;2023-05-02T05:35:25;100566.78;;;12.99;57.74
77124;BME280;66079;47.646;19.130;2023-05-02T05:38:29;100569.81;;;13.27;56.43
77124;BME280;66079;47.646;19.130;2023-05-02T05:41:32;100576.47;;;13.48;55.28
77124;BME280;66079;47.646;19.130;2023-05-02T05:44:40;100576.63;;;13.53;54.50
77124;BME280;66079;47.646;19.130;2023-05-02T05:47:43;100568.78;;;13.53;54.15
77124;BME280;66079;47.646;19.130;2023-05-02T05:50:46;100579.56;;;13.81;54.10
77124;BME280;66079;47.646;19.130;2023-05-02T05:53:49;100571.56;;;13.76;54.35
77124;BME280;66079;47.646;19.130;2023-05-02T05:56:51;100568.09;;;13.82;54.10
77124;BME280;66079;47.646;19.130;2023-05-02T05:59:55;100586.22;;;13.95;53.83
77124;BME280;66079;47.646;19.130;2023-05-02T06:02:59;100578.47;;;13.88;53.87
77124;BME280;66079;47.646;19.130;2023-05-02T06:06:05;100597.19;;;14.03;53.73
77124;BME280;66079;47.646;19.130;2023-05-02T06:09:08;100596.25;;;13.98;54.38
77124;BME280;66079;47.646;19.130;2023-05-02T06:12:19;100589.94;;;13.87;55.13
77124;BME280;66079;47.646;19.130;2023-05-02T06:15:23;100593.47;;;13.93;55.06
77124;BME280;66079;47.646;19.130;2023-05-02T06:18:26;100585.94;;;14.03;54.45
77124;BME280;66079;47.646;19.130;2023-05-02T06:21:29;100587.41;;;14.17;54.46
77124;BME280;66079;47.646;19.130;2023-05-02T06:24:33;100585.63;;;14.47;53.29
77124;BME280;66079;47.646;19.130;2023-05-02T06:27:36;100601.31;;;15.06;51.76
77124;BME280;66079;47.646;19.130;2023-05-02T06:30:39;100601.28;;;15.47;50.34
77124;BME280;66079;47.646;19.130;2023-05-02T06:33:42;100599.13;;;15.44;50.54
77124;BME280;66079;47.646;19.130;2023-05-02T06:36:45;100586.81;;;15.45;50.79
77124;BME280;66079;47.646;19.130;2023-05-02T06:39:48;100584.97;;;15.45;50.93
77124;BME280;66079;47.646;19.130;2023-05-02T06:42:50;100590.91;;;15.52;51.62
77124;BME280;66079;47.646;19.130;2023-05-02T06:45:54;100592.38;;;15.60;51.63
77124;BME280;66079;47.646;19.130;2023-05-02T06:49:00;100571.53;;;15.65;51.87
77124;BME280;66079;47.646;19.130;2023-05-02T06:52:04;100580.19;;;15.77;50.96
77124;BME280;66079;47.646;19.130;2023-05-02T06:55:07;100577.09;;;15.91;50.62
77124;BME280;66079;47.646;19.130;2023-05-02T06:58:10;100587.41;;;16.21;49.93
77124;BME280;66079;47.646;19.130;2023-05-02T07:01:12;100586.53;;;16.44;48.97
77124;BME280;66079;47.646;19.130;2023-05-02T07:04:15;100600.72;;;16.71;48.92
77124;BME280;66079;47.646;19.130;2023-05-02T07:07:18;100590.88;;;16.78;48.17
77124;BME280;66079;47.646;19.130;2023-05-02T07:10:23;100604.50;;;17.24;47.45
77124;BME280;66079;47.646;19.130;2023-05-02T07:13:25;100588.19;;;17.39;46.62
77124;BME280;66079;47.646;19.130;2023-05-02T07:16:28;100586.53;;;17.50;46.60
77124;BME280;66079;47.646;19.130;2023-05-02T07:19:32;100593.38;;;17.67;45.65
77124;BME280;66079;47.646;19.130;2023-05-02T07:22:35;100587.97;;;17.95;44.59
77124;BME280;66079;47.646;19.130;2023-05-02T07:25:37;100589.56;;;18.39;42.64
77124;BME280;66079;47.646;19.130;2023-05-02T07:28:41;100594.31;;;18.64;41.96
77124;BME280;66079;47.646;19.130;2023-05-02T07:31:44;100589.91;;;18.70;41.61
77124;BME280;66079;47.646;19.130;2023-05-02T07:34:47;100600.13;;;18.66;41.64
77124;BME280;66079;47.646;19.130;2023-05-02T07:37:50;100595.88;;;18.87;41.47
77124;BME280;66079;47.646;19.130;2023-05-02T07:40:56;100588.03;;;18.97;40.95
77124;BME280;66079;47.646;19.130;2023-05-02T07:43:59;100598.91;;;19.05;40.21
77124;BME280;66079;47.646;19.130;2023-05-02T07:47:03;100586.06;;;19.14;40.73
77124;BME280;66079;47.646;19.130;2023-05-02T07:50:06;100589.75;;;19.13;40.21
77124;BME280;66079;47.646;19.130;2023-05-02T07:53:09;100607.31;;;19.29;39.91
77124;BME280;66079;47.646;19.130;2023-05-02T07:56:12;100594.00;;;19.19;39.92
77124;BME280;66079;47.646;19.130;2023-05-02T07:59:15;100574.16;;;19.06;40.19
77124;BME280;66079;47.646;19.130;2023-05-02T08:02:18;100590.38;;;19.25;40.39
77124;BME280;66079;47.646;19.130;2023-05-02T08:05:23;100594.69;;;19.31;39.99
77124;BME280;66079;47.646;19.130;2023-05-02T08:08:25;100599.00;;;19.15;40.29
77124;BME280;66079;47.646;19.130;2023-05-02T08:11:28;100597.16;;;19.47;40.66
77124;BME280;66079;47.646;19.130;2023-05-02T08:14:31;100582.47;;;19.61;39.91
77124;BME280;66079;47.646;19.130;2023-05-02T08:17:34;100595.34;;;20.00;39.54
77124;BME280;66079;47.646;19.130;2023-05-02T08:20:36;100596.09;;;19.95;38.81
77124;BME280;66079;47.646;19.130;2023-05-02T08:23:40;100576.13;;;20.14;39.04
77124;BME280;66079;47.646;19.130;2023-05-02T08:26:42;100568.22;;;20.14;38.77
77124;BME280;66079;47.646;19.130;2023-05-02T08:29:45;100594.75;;;20.54;38.12
77124;BME280;66079;47.646;19.130;2023-05-02T08:32:48;100590.56;;;20.63;38.31
77124;BME280;66079;47.646;19.130;2023-05-02T08:35:51;100584.78;;;21.27;37.27
77124;BME280;66079;47.646;19.130;2023-05-02T08:38:54;100598.50;;;21.79;36.93
77124;BME280;66079;47.646;19.130;2023-05-02T08:41:57;100573.72;;;21.25;36.37
77124;BME280;66079;47.646;19.130;2023-05-02T08:45:00;100608.34;;;21.03;37.25
77124;BME280;66079;47.646;19.130;2023-05-02T08:48:07;100588.19;;;20.67;37.80
77124;BME280;66079;47.646;19.130;2023-05-02T08:51:14;100600.03;;;20.49;38.56
77124;BME280;66079;47.646;19.130;2023-05-02T08:54:18;100581.03;;;20.67;38.36
77124;BME280;66079;47.646;19.130;2023-05-02T08:57:22;100585.31;;;21.29;38.24
77124;BME280;66079;47.646;19.130;2023-05-02T09:00:26;100587.16;;;21.38;36.97
77124;BME280;66079;47.646;19.130;2023-05-02T09:03:34;100587.94;;;21.59;37.03
77124;BME280;66079;47.646;19.130;2023-05-02T09:06:37;100579.50;;;21.27;37.73
77124;BME280;66079;47.646;19.130;2023-05-02T09:09:39;100577.66;;;21.12;37.53
77124;BME280;66079;47.646;19.130;2023-05-02T09:12:42;100585.84;;;21.31;37.43
77124;BME280;66079;47.646;19.130;2023-05-02T09:15:56;100561.53;;;21.29;37.37
77124;BME280;66079;47.646;19.130;2023-05-02T09:19:00;100583.63;;;21.93;37.10
77124;BME280;66079;47.646;19.130;2023-05-02T09:22:03;100574.31;;;22.05;36.41
77124;BME280;66079;47.646;19.130;2023-05-02T09:25:06;100573.03;;;22.90;35.31
77124;BME280;66079;47.646;19.130;2023-05-02T09:28:09;100581.81;;;23.19;34.37
77124;BME280;66079;47.646;19.130;2023-05-02T09:31:14;100570.91;;;22.92;34.46
77124;BME280;66079;47.646;19.130;2023-05-02T09:34:33;100557.97;;;22.86;34.65
77124;BME280;66079;47.646;19.130;2023-05-02T09:37:36;100573.25;;;22.99;34.75
77124;BME280;66079;47.646;19.130;2023-05-02T09:40:52;100567.13;;;23.32;33.72
77124;BME280;66079;47.646;19.130;2023-05-02T09:43:56;100568.56;;;23.95;32.74
77124;BME280;66079;47.646;19.130;2023-05-02T09:46:59;100575.13;;;24.03;33.26
77124;BME280;66079;47.646;19.130;2023-05-02T09:50:04;100579.03;;;24.29;32.10
77124;BME280;66079;47.646;19.130;2023-05-02T09:53:09;100560.38;;;24.34;32.10
77124;BME280;66079;47.646;19.130;2023-05-02T09:56:13;100560.66;;;24.51;31.74
77124;BME280;66079;47.646;19.130;2023-05-02T09:59:19;100565.38;;;24.91;30.42
77124;BME280;66079;47.646;19.130;2023-05-02T10:02:23;100561.91;;;25.55;29.70
77124;BME280;66079;47.646;19.130;2023-05-02T10:05:26;100565.50;;;25.32;29.41
77124;BME280;66079;47.646;19.130;2023-05-02T10:08:32;100572.78;;;24.94;29.69
77124;BME280;66079;47.646;19.130;2023-05-02T10:11:37;100552.13;;;25.64;29.12
77124;BME280;66079;47.646;19.130;2023-05-02T10:14:50;100562.47;;;26.06;29.19
77124;BME280;66079;47.646;19.130;2023-05-02T10:17:57;100558.66;;;25.26;29.17
77124;BME280;66079;47.646;19.130;2023-05-02T10:21:08;100551.31;;;24.72;29.89
77124;BME280;66079;47.646;19.130;2023-05-02T10:24:12;100544.31;;;25.54;29.02
77124;BME280;66079;47.646;19.130;2023-05-02T10:27:15;100557.66;;;25.94;28.35
77124;BME280;66079;47.646;19.130;2023-05-02T10:30:20;100543.50;;;26.79;27.11
77124;BME280;66079;47.646;19.130;2023-05-02T10:33:23;100547.53;;;27.99;25.76
77124;BME280;66079;47.646;19.130;2023-05-02T10:36:26;100546.81;;;28.66;23.91
77124;BME280;66079;47.646;19.130;2023-05-02T10:39:31;100535.56;;;28.99;23.69
77124;BME280;66079;47.646;19.130;2023-05-02T10:42:37;100542.00;;;29.52;22.96
77124;BME280;66079;47.646;19.130;2023-05-02T10:45:40;100553.94;;;29.26;23.21
77124;BME280;66079;47.646;19.130;2023-05-02T10:48:59;100538.38;;;29.86;22.83
77124;BME280;66079;47.646;19.130;2023-05-02T10:52:26;100559.13;;;30.59;22.26
77124;BME280;66079;47.646;19.130;2023-05-02T10:55:31;100555.94;;;32.86;19.49
77124;BME280;66079;47.646;19.130;2023-05-02T10:58:34;100546.19;;;31.99;19.89
77124;BME280;66079;47.646;19.130;2023-05-02T11:01:37;100530.81;;;29.21;23.16
77124;BME280;66079;47.646;19.130;2023-05-02T11:05:01;100536.78;;;30.35;22.52
77124;BME280;66079;47.646;19.130;2023-05-02T11:11:44;100550.59;;;29.95;22.70
77124;BME280;66079;47.646;19.130;2023-05-02T11:14:48;100538.44;;;32.37;20.30
77124;BME280;66079;47.646;19.130;2023-05-02T11:17:58;100536.22;;;34.45;17.99
77124;BME280;66079;47.646;19.130;2023-05-02T11:21:23;100545.91;;;36.11;16.59
77124;BME280;66079;47.646;19.130;2023-05-02T11:24:44;100545.66;;;35.41;17.37
77124;BME280;66079;47.646;19.130;2023-05-02T11:27:48;100533.75;;;36.31;16.56
77124;BME280;66079;47.646;19.130;2023-05-02T11:30:51;100521.47;;;33.70;18.84
77124;BME280;66079;47.646;19.130;2023-05-02T11:34:00;100524.13;;;34.20;18.38
77124;BME280;66079;47.646;19.130;2023-05-02T11:37:10;100515.34;;;36.10;16.85
77124;BME280;66079;47.646;19.130;2023-05-02T11:40:14;100530.16;;;37.30;15.23
77124;BME280;66079;47.646;19.130;2023-05-02T11:43:18;100521.44;;;37.10;16.00
77124;BME280;66079;47.646;19.130;2023-05-02T11:46:20;100518.00;;;36.37;16.03
77124;BME280;66079;47.646;19.130;2023-05-02T11:49:24;100504.28;;;34.31;18.15
77124;BME280;66079;47.646;19.130;2023-05-02T11:52:27;100497.50;;;32.43;20.41
77124;BME280;66079;47.646;19.130;2023-05-02T11:55:29;100499.59;;;31.59;21.61
77124;BME280;66079;47.646;19.130;2023-05-02T11:58:32;100502.41;;;31.62;21.32
77124;BME280;66079;47.646;19.130;2023-05-02T12:01:36;100480.66;;;30.95;22.21
77124;BME280;66079;47.646;19.130;2023-05-02T12:04:42;100499.34;;;29.76;23.34
77124;BME280;66079;47.646;19.130;2023-05-02T12:07:46;100501.75;;;29.61;24.03
77124;BME280;66079;47.646;19.130;2023-05-02T12:10:53;100485.44;;;28.61;25.46
77124;BME280;66079;47.646;19.130;2023-05-02T12:13:56;100484.09;;;28.93;25.24
77124;BME280;66079;47.646;19.130;2023-05-02T12:16:59;100488.00;;;29.13;24.94
77124;BME280;66079;47.646;19.130;2023-05-02T12:20:03;100477.13;;;29.01;24.12
77124;BME280;66079;47.646;19.130;2023-05-02T12:23:06;100473.06;;;30.11;23.07
77124;BME280;66079;47.646;19.130;2023-05-02T12:26:35;100471.78;;;29.38;24.00
77124;BME280;66079;47.646;19.130;2023-05-02T12:29:43;100485.25;;;28.66;24.76
77124;BME280;66079;47.646;19.130;2023-05-02T12:32:55;100481.50;;;28.33;25.42
77124;BME280;66079;47.646;19.130;2023-05-02T12:36:05;100478.50;;;28.35;24.53
77124;BME280;66079;47.646;19.130;2023-05-02T12:39:08;100464.78;;;27.85;26.15
77124;BME280;66079;47.646;19.130;2023-05-02T12:42:15;100472.72;;;28.50;25.47
77124;BME280;66079;47.646;19.130;2023-05-02T12:45:18;100466.53;;;29.21;24.93
77124;BME280;66079;47.646;19.130;2023-05-02T12:48:27;100466.69;;;28.44;26.17
77124;BME280;66079;47.646;19.130;2023-05-02T12:51:29;100449.41;;;28.16;24.24
77124;BME280;66079;47.646;19.130;2023-05-02T12:54:33;100466.41;;;28.20;25.38
77124;BME280;66079;47.646;19.130;2023-05-02T12:57:35;100467.22;;;27.39;25.12
77124;BME280;66079;47.646;19.130;2023-05-02T13:00:40;100459.63;;;26.93;25.14
77124;BME280;66079;47.646;19.130;2023-05-02T13:03:43;100457.25;;;26.61;25.54
77124;BME280;66079;47.646;19.130;2023-05-02T13:06:46;100455.75;;;26.69;26.08
77124;BME280;66079;47.646;19.130;2023-05-02T13:09:48;100456.34;;;26.88;26.36
77124;BME280;66079;47.646;19.130;2023-05-02T13:12:51;100467.63;;;26.85;27.45
77124;BME280;66079;47.646;19.130;2023-05-02T13:15:54;100462.75;;;26.87;26.17
77124;BME280;66079;47.646;19.130;2023-05-02T13:18:57;100443.50;;;26.68;28.86
77124;BME280;66079;47.646;19.130;2023-05-02T13:22:00;100445.31;;;26.14;30.52
77124;BME280;66079;47.646;19.130;2023-05-02T13:25:03;100448.38;;;26.52;29.89
77124;BME280;66079;47.646;19.130;2023-05-02T13:28:06;100419.59;;;26.32;29.89
77124;BME280;66079;47.646;19.130;2023-05-02T13:31:09;100408.66;;;26.42;29.37
77124;BME280;66079;47.646;19.130;2023-05-02T13:34:11;100434.94;;;26.57;29.07
77124;BME280;66079;47.646;19.130;2023-05-02T13:37:14;100424.81;;;26.46;29.79
77124;BME280;66079;47.646;19.130;2023-05-02T13:40:16;100431.34;;;26.84;27.61
77124;BME280;66079;47.646;19.130;2023-05-02T13:43:19;100427.19;;;27.48;25.57
77124;BME280;66079;47.646;19.130;2023-05-02T13:46:22;100434.09;;;27.40;25.67
77124;BME280;66079;47.646;19.130;2023-05-02T13:49:25;100414.44;;;26.13;26.72
77124;BME280;66079;47.646;19.130;2023-05-02T13:52:27;100430.53;;;25.95;27.15
77124;BME280;66079;47.646;19.130;2023-05-02T13:55:30;100427.19;;;25.67;27.40
77124;BME280;66079;47.646;19.130;2023-05-02T13:58:33;100423.16;;;25.56;27.57
77124;BME280;66079;47.646;19.130;2023-05-02T14:01:36;100429.63;;;25.77;27.14
77124;BME280;66079;47.646;19.130;2023-05-02T14:04:42;100434.66;;;26.14;26.99
77124;BME280;66079;47.646;19.130;2023-05-02T14:07:44;100425.78;;;26.19;26.49
77124;BME280;66079;47.646;19.130;2023-05-02T14:10:47;100424.84;;;26.68;26.23
77124;BME280;66079;47.646;19.130;2023-05-02T14:13:50;100437.41;;;26.54;25.82
77124;BME280;66079;47.646;19.130;2023-05-02T14:16:52;100423.91;;;26.06;26.86
77124;BME280;66079;47.646;19.130;2023-05-02T14:19:55;100431.25;;;25.51;27.56
77124;BME280;66079;47.646;19.130;2023-05-02T14:22:58;100433.59;;;24.53;29.79
77124;BME280;66079;47.646;19.130;2023-05-02T14:26:00;100443.88;;;23.66;31.99
77124;BME280;66079;47.646;19.130;2023-05-02T14:29:03;100429.09;;;23.37;33.79
77124;BME280;66079;47.646;19.130;2023-05-02T14:32:06;100418.44;;;23.42;33.35
77124;BME280;66079;47.646;19.130;2023-05-02T14:35:09;100416.50;;;23.24;34.30
77124;BME280;66079;47.646;19.130;2023-05-02T14:38:12;100417.88;;;23.21;33.64
77124;BME280;66079;47.646;19.130;2023-05-02T14:41:15;100415.00;;;23.41;33.71
77124;BME280;66079;47.646;19.130;2023-05-02T14:44:18;100414.94;;;23.23;33.12
77124;BME280;66079;47.646;19.130;2023-05-02T14:47:21;100409.13;;;23.44;31.92
77124;BME280;66079;47.646;19.130;2023-05-02T14:50:23;100427.28;;;23.75;31.82
77124;BME280;66079;47.646;19.130;2023-05-02T14:53:26;100430.25;;;23.54;31.92
77124;BME280;66079;47.646;19.130;2023-05-02T14:56:29;100421.28;;;23.69;31.70
77124;BME280;66079;47.646;19.130;2023-05-02T14:59:32;100434.91;;;23.81;31.61
77124;BME280;66079;47.646;19.130;2023-05-02T15:02:37;100438.16;;;23.97;31.36
77124;BME280;66079;47.646;19.130;2023-05-02T15:05:40;100429.84;;;24.22;30.93
77124;BME280;66079;47.646;19.130;2023-05-02T15:08:43;100431.56;;;24.13;30.91
77124;BME280;66079;47.646;19.130;2023-05-02T15:11:46;100427.41;;;24.07;31.24
77124;BME280;66079;47.646;19.130;2023-05-02T15:14:48;100436.22;;;24.21;31.19
77124;BME280;66079;47.646;19.130;2023-05-02T15:17:51;100429.41;;;24.33;31.29
77124;BME280;66079;47.646;19.130;2023-05-02T15:20:54;100422.53;;;24.46;31.28
77124;BME280;66079;47.646;19.130;2023-05-02T15:23:57;100415.38;;;24.28;31.40
77124;BME280;66079;47.646;19.130;2023-05-02T15:27:00;100425.72;;;24.29;30.84
77124;BME280;66079;47.646;19.130;2023-05-02T15:30:03;100423.75;;;24.03;30.73
77124;BME280;66079;47.646;19.130;2023-05-02T15:33:07;100415.56;;;23.99;30.67
77124;BME280;66079;47.646;19.130;2023-05-02T15:36:10;100413.91;;;24.03;30.76
77124;BME280;66079;47.646;19.130;2023-05-02T15:39:13;100402.56;;;23.98;30.79
77124;BME280;66079;47.646;19.130;2023-05-02T15:42:15;100411.84;;;24.00;30.50
77124;BME280;66079;47.646;19.130;2023-05-02T15:45:18;100390.78;;;23.85;30.51
77124;BME280;66079;47.646;19.130;2023-05-02T15:48:21;100402.63;;;23.74;30.73
77124;BME280;66079;47.646;19.130;2023-05-02T15:51:24;100408.72;;;23.75;31.23
77124;BME280;66079;47.646;19.130;2023-05-02T15:54:27;100411.25;;;23.66;31.49
77124;BME280;66079;47.646;19.130;2023-05-02T15:57:30;100412.81;;;23.67;31.56
77124;BME280;66079;47.646;19.130;2023-05-02T16:00:32;100414.88;;;23.70;31.32
77124;BME280;66079;47.646;19.130;2023-05-02T16:03:35;100398.81;;;23.61;31.44
77124;BME280;66079;47.646;19.130;2023-05-02T16:06:38;100415.69;;;23.71;31.68
77124;BME280;66079;47.646;19.130;2023-05-02T16:09:43;100415.09;;;23.74;31.82
77124;BME280;66079;47.646;19.130;2023-05-02T16:12:46;100414.94;;;23.65;31.95